createdAt,value
2022-12-19T00:01:09.745Z,102457.28
2022-12-19T00:03:36.362Z,102438.72
2022-12-19T00:06:04.426Z,102446.16
2022-12-19T00:08:33.734Z,102442.69
2022-12-19T00:11:02.124Z,102442.38
2022-12-19T00:13:36.235Z,102453.28
2022-12-19T00:16:17.696Z,102453.72
2022-12-19T00:18:47.016Z,102458.84
2022-12-19T00:21:17.826Z,102452.25
2022-12-19T00:23:45.144Z,102460.44
2022-12-19T00:26:15.898Z,102450.03
2022-12-19T00:28:44.516Z,102450.47
2022-12-19T00:31:14.072Z,102444.69
2022-12-19T00:33:43.364Z,102439.28
2022-12-19T00:36:22.762Z,102433.91
2022-12-19T00:38:51.088Z,102442.88
2022-12-19T00:41:20.261Z,102437.47
2022-12-19T00:43:50.296Z,102450.69
2022-12-19T00:46:16.781Z,102444.88
2022-12-19T00:48:45.939Z,102438.72
2022-12-19T00:51:24.294Z,102432.59
2022-12-19T00:53:51.867Z,102426.44
2022-12-19T00:56:21.554Z,102432.66
2022-12-19T00:58:48.635Z,102435.41
2022-12-19T01:01:18.113Z,102421.88
2022-12-19T01:04:04.447Z,102418.44
2022-12-19T01:06:31.631Z,102414.19
2022-12-19T01:08:58.394Z,102422.75
2022-12-19T01:11:43.559Z,102414.28
2022-12-19T01:14:14.023Z,102427.44
2022-12-19T01:16:44.205Z,102418.94
2022-12-19T01:19:10.668Z,102417.44
2022-12-19T01:21:37.227Z,102412.41
2022-12-19T01:24:05.165Z,102420.56
2022-12-19T01:26:31.799Z,102428.72
2022-12-19T01:28:58.346Z,102428.34
2022-12-19T01:31:24.826Z,102414.84
2022-12-19T01:33:51.283Z,102423.34
2022-12-19T01:36:18.183Z,102418.75
2022-12-19T01:38:44.632Z,102414.16
2022-12-19T01:41:11.134Z,102411.03
2022-12-19T01:43:59.409Z,102404.88
2022-12-19T01:46:47.703Z,102404.50
2022-12-19T01:49:35.550Z,102396.81
2022-12-19T01:52:07.656Z,102389.88
2022-12-19T01:54:40.359Z,102399.19
2022-12-19T01:57:12.699Z,102386.03
2022-12-19T01:59:43.917Z,102387.59
2022-12-19T02:02:21.483Z,102384.91
2022-12-19T02:04:48.151Z,102382.19
2022-12-19T02:07:17.233Z,102371.03
2022-12-19T02:09:46.354Z,102369.84
2022-12-19T02:12:13.475Z,102362.94
2022-12-19T02:14:40.767Z,102369.88
2022-12-19T02:17:19.274Z,102365.66
2022-12-19T02:20:09.761Z,102355.63
2022-12-19T02:23:01.014Z,102348.69
2022-12-19T02:26:00.259Z,102350.66
2022-12-19T02:28:45.484Z,102339.47
2022-12-19T02:31:21.067Z,102342.94
2022-12-19T02:33:56.238Z,102342.19
2022-12-19T02:36:33.976Z,102339.09
2022-12-19T02:39:15.070Z,102329.09
2022-12-19T02:41:52.875Z,102327.13
2022-12-19T02:44:25.747Z,102315.97
2022-12-19T02:46:53.027Z,102322.53
2022-12-19T02:49:24.980Z,102323.31
2022-12-19T02:51:57.734Z,102324.50
2022-12-19T02:54:25.287Z,102330.28
2022-12-19T02:57:07.406Z,102323.75
2022-12-19T02:59:54.884Z,102316.03
2022-12-19T03:02:22.670Z,102314.88
2022-12-19T03:05:18.536Z,102313.72
2022-12-19T03:07:52.249Z,102307.56
2022-12-19T03:10:22.678Z,102303.72
2022-12-19T03:12:57.784Z,102307.56
2022-12-19T03:15:24.957Z,102303.75
2022-12-19T03:17:52.222Z,102301.81
2022-12-19T03:20:45.109Z,102298.75
2022-12-19T03:23:12.927Z,102298.75
2022-12-19T03:25:42.558Z,102299.13
2022-12-19T03:28:15.253Z,102298.75
2022-12-19T03:30:44.606Z,102290.63
2022-12-19T03:33:13.332Z,102278.31
2022-12-19T03:35:41.488Z,102271.38
2022-12-19T03:38:10.987Z,102267.91
2022-12-19T03:40:39.944Z,102259.03
2022-12-19T03:43:11.120Z,102255.16
2022-12-19T03:45:53.314Z,102260.19
2022-12-19T03:48:32.105Z,102260.59
2022-12-19T03:51:23.454Z,102259.81
2022-12-19T03:54:03.421Z,102252.88
2022-12-19T03:57:06.096Z,102244.41
2022-12-19T03:59:52.201Z,102243.22
2022-12-19T04:02:21.045Z,102238.66
2022-12-19T04:04:53.545Z,102227.44
2022-12-19T04:07:21.435Z,102225.91
2022-12-19T04:09:49.468Z,102232.06
2022-12-19T04:12:19.768Z,102234.41
2022-12-19T04:14:46.766Z,102237.88
2022-12-19T04:17:51.835Z,102227.06
2022-12-19T04:20:21.383Z,102234.81
2022-12-19T04:23:04.370Z,102225.16
2022-12-19T04:25:35.429Z,102210.88
2022-12-19T04:28:24.703Z,102200.88
2022-12-19T04:30:52.357Z,102189.69
2022-12-19T04:33:19.024Z,102187.38
2022-12-19T04:35:45.694Z,102185.88
2022-12-19T04:38:12.349Z,102190.50
2022-12-19T04:40:41.455Z,102188.16
2022-12-19T04:43:08.715Z,102182.38
2022-12-19T04:45:35.402Z,102184.69
2022-12-19T04:48:03.180Z,102185.06
2022-12-19T04:50:29.744Z,102182.38
2022-12-19T04:52:59.149Z,102166.97
2022-12-19T04:55:25.668Z,102155.78
2022-12-19T04:57:52.146Z,102153.06
2022-12-19T05:00:18.753Z,102139.97
2022-12-19T05:02:45.735Z,102127.63
2022-12-19T05:05:12.371Z,102137.69
2022-12-19T05:07:38.860Z,102129.19
2022-12-19T05:10:06.072Z,102133.03
2022-12-19T05:12:32.768Z,102128.06
2022-12-19T05:14:59.266Z,102142.72
2022-12-19T05:17:25.781Z,102140.41
2022-12-19T05:19:52.233Z,102140.78
2022-12-19T05:22:18.724Z,102134.25
2022-12-19T05:24:45.201Z,102129.59
2022-12-19T05:27:11.666Z,102120.00
2022-12-19T05:29:38.120Z,102118.44
2022-12-19T05:32:04.744Z,102124.22
2022-12-19T05:34:31.300Z,102132.72
2022-12-19T05:36:57.779Z,102121.53
2022-12-19T05:39:25.784Z,102123.09
2022-12-19T05:41:52.249Z,102131.56
2022-12-19T05:44:18.713Z,102130.44
2022-12-19T05:46:45.302Z,102124.63
2022-12-19T05:49:11.862Z,102112.69
2022-12-19T05:51:38.769Z,102106.16
2022-12-19T05:54:05.307Z,102097.28
2022-12-19T05:56:31.785Z,102089.13
2022-12-19T05:58:58.208Z,102080.66
2022-12-19T06:01:27.125Z,102081.03
2022-12-19T06:03:55.145Z,102076.75
2022-12-19T06:06:25.446Z,102082.50
2022-12-19T06:08:56.429Z,102078.59
2022-12-19T06:11:23.224Z,102082.00
2022-12-19T06:13:49.854Z,102086.19
2022-12-19T06:16:20.180Z,102073.34
2022-12-19T06:18:47.568Z,102067.88
2022-12-19T06:21:16.676Z,102068.56
2022-12-19T06:23:44.149Z,102070.41
2022-12-19T06:26:18.693Z,102066.44
2022-12-19T06:28:46.918Z,102062.47
2022-12-19T06:31:14.332Z,102074.72
2022-12-19T06:33:40.969Z,102054.16
2022-12-19T06:36:12.068Z,102055.94
2022-12-19T06:38:38.575Z,102046.94
2022-12-19T06:41:23.743Z,102032.91
2022-12-19T06:43:53.364Z,102034.72
2022-12-19T06:46:20.559Z,102026.09
2022-12-19T06:48:47.134Z,102022.88
2022-12-19T06:51:13.689Z,102016.53
2022-12-19T06:53:40.368Z,102026.50
2022-12-19T06:56:07.417Z,102010.50
2022-12-19T06:58:34.221Z,102018.50
2022-12-19T07:01:01.488Z,102021.13
2022-12-19T07:03:35.014Z,102021.78
2022-12-19T07:06:02.331Z,102027.03
2022-12-19T07:08:29.663Z,102037.41
2022-12-19T07:10:57.189Z,102020.63
2022-12-19T07:13:23.948Z,102024.41
2022-12-19T07:15:51.938Z,102019.63
2022-12-19T07:18:18.637Z,102021.09
2022-12-19T07:20:45.549Z,102018.25
2022-12-19T07:23:17.761Z,102017.69
2022-12-19T07:25:44.306Z,102017.63
2022-12-19T07:28:10.858Z,102019.44
2022-12-19T07:30:37.384Z,102016.66
2022-12-19T07:33:04.084Z,102015.00
2022-12-19T07:35:30.628Z,102016.47
2022-12-19T07:38:05.099Z,102012.50
2022-12-19T07:40:32.070Z,102013.19
2022-12-19T07:43:03.851Z,102010.75
2022-12-19T07:45:31.042Z,102014.47
2022-12-19T07:48:01.778Z,102011.69
2022-12-19T07:50:29.071Z,102003.13
2022-12-19T07:52:55.900Z,101997.63
2022-12-19T07:55:22.389Z,101999.09
2022-12-19T07:57:48.909Z,102000.16
2022-12-19T08:00:15.575Z,102001.31
2022-12-19T08:02:42.453Z,101996.13
2022-12-19T08:05:09.685Z,101991.06
2022-12-19T08:07:36.164Z,101994.13
2022-12-19T08:10:02.850Z,102000.56
2022-12-19T08:12:29.300Z,101992.78
2022-12-19T08:14:57.485Z,101990.28
2022-12-19T08:17:24.469Z,101991.44
2022-12-19T08:19:51.033Z,101997.53
2022-12-19T08:22:17.580Z,101993.97
2022-12-19T08:24:44.158Z,101991.16
2022-12-19T08:27:10.918Z,101993.78
2022-12-19T08:29:37.379Z,101998.34
2022-12-19T08:32:04.012Z,101993.59
2022-12-19T08:34:30.560Z,101990.06
2022-12-19T08:36:57.017Z,101995.38
2022-12-19T08:39:23.500Z,101993.78
2022-12-19T08:41:49.999Z,101991.75
2022-12-19T08:44:16.443Z,101995.91
2022-12-19T08:46:48.207Z,101988.19
2022-12-19T08:49:16.801Z,101985.38
2022-12-19T08:51:43.335Z,101979.84
2022-12-19T08:54:10.876Z,101980.16
2022-12-19T08:56:41.406Z,101971.19
2022-12-19T08:59:13.412Z,101963.69
2022-12-19T09:01:41.972Z,101955.09
2022-12-19T09:05:20.301Z,101958.94
2022-12-19T09:06:56.087Z,101951.84
2022-12-19T09:09:22.572Z,101948.72
2022-12-19T09:11:48.991Z,101945.13
2022-12-19T09:14:15.717Z,101951.66
2022-12-19T09:16:48.018Z,101952.00
2022-12-19T09:19:16.462Z,101946.13
2022-12-19T09:21:43.297Z,101946.91
2022-12-19T09:24:10.281Z,101938.31
2022-12-19T09:26:42.070Z,101934.41
2022-12-19T09:29:19.717Z,101940.56
2022-12-19T09:31:47.001Z,101937.44
2022-12-19T09:34:13.387Z,101936.25
2022-12-19T09:36:39.798Z,101934.31
2022-12-19T09:39:06.443Z,101929.59
2022-12-19T09:41:58.031Z,101922.56
2022-12-19T09:44:30.017Z,101925.28
2022-12-19T09:47:02.308Z,101919.09
2022-12-19T09:49:32.425Z,101921.38
2022-12-19T09:52:05.458Z,101917.44
2022-12-19T09:54:42.335Z,101915.84
2022-12-19T09:57:36.966Z,101912.75
2022-12-19T10:00:12.243Z,101906.56
2022-12-19T10:02:59.363Z,101905.34
2022-12-19T10:07:11.196Z,101900.28
2022-12-19T10:08:45.663Z,101892.84
2022-12-19T10:12:39.326Z,101896.66
2022-12-19T10:15:14.883Z,101894.28
2022-12-19T10:18:02.175Z,101891.56
2022-12-19T10:20:32.740Z,101893.44
2022-12-19T10:23:08.934Z,101893.00
2022-12-19T10:25:57.046Z,101889.06
2022-12-19T10:29:03.237Z,101880.47
2022-12-19T10:31:58.453Z,101867.66
2022-12-19T10:34:33.410Z,101867.53
2022-12-19T10:37:25.640Z,101865.91
2022-12-19T10:39:55.985Z,101856.56
2022-12-19T10:42:44.467Z,101866.97
2022-12-19T10:45:17.093Z,101861.91
2022-12-19T10:47:43.578Z,101855.69
2022-12-19T10:50:12.960Z,101859.47
2022-12-19T10:52:52.263Z,101857.13
2022-12-19T10:55:33.910Z,101847.72
2022-12-19T10:58:10.718Z,101848.06
2022-12-19T11:00:37.212Z,101840.22
2022-12-19T11:03:19.105Z,101842.50
2022-12-19T11:05:58.407Z,101831.41
2022-12-19T11:08:30.794Z,101828.34
2022-12-19T11:12:31.505Z,101819.44
2022-12-19T11:19:27.859Z,101815.53
2022-12-19T11:22:33.594Z,101806.25
2022-12-19T11:29:25.475Z,101805.06
2022-12-19T11:29:45.633Z,101800.38
2022-12-19T11:30:35.951Z,101791.06
2022-12-19T11:30:36.480Z,101796.50
2022-12-19T11:33:28.119Z,101801.47
2022-12-19T11:35:58.643Z,101798.75
2022-12-19T11:38:48.747Z,101792.56
2022-12-19T11:41:22.107Z,101780.47
2022-12-19T11:44:19.604Z,101783.94
2022-12-19T11:49:28.848Z,101773.06
2022-12-19T11:52:06.044Z,101766.75
2022-12-19T11:54:37.720Z,101774.19
2022-12-19T11:57:04.251Z,101760.56
2022-12-19T11:59:34.612Z,101758.59
2022-12-19T12:02:25.742Z,101767.84
2022-12-19T12:05:11.316Z,101761.63
2022-12-19T12:08:37.148Z,101758.16
2022-12-19T12:14:09.559Z,101761.22
2022-12-19T12:25:09.429Z,101754.22
2022-12-19T12:31:04.228Z,101751.06
2022-12-19T12:31:09.929Z,101746.41
2022-12-19T12:31:20.311Z,101750.75
2022-12-19T12:31:40.506Z,101740.19
2022-12-19T12:31:58.103Z,101736.28
2022-12-19T12:35:46.915Z,101738.56
2022-12-19T12:38:26.573Z,101731.16
2022-12-19T12:41:14.416Z,101730.72
2022-12-19T12:43:46.721Z,101737.69
2022-12-19T12:46:19.456Z,101732.69
2022-12-19T12:48:53.154Z,101722.13
2022-12-19T12:51:21.068Z,101714.72
2022-12-19T12:53:48.479Z,101704.25
2022-12-19T12:56:17.751Z,101715.47
2022-12-19T12:58:48.437Z,101706.53
2022-12-19T13:01:22.725Z,101713.47
2022-12-19T13:04:11.031Z,101708.81
2022-12-19T13:06:37.522Z,101711.13
2022-12-19T13:09:10.189Z,101699.59
2022-12-19T13:12:13.773Z,101692.94
2022-12-19T13:14:42.295Z,101694.44
2022-12-19T13:17:19.231Z,101695.19
2022-12-19T13:20:17.871Z,101694.03
2022-12-19T13:23:19.805Z,101697.06
2022-12-19T13:25:46.297Z,101694.34
2022-12-19T13:28:40.226Z,101698.56
2022-12-19T13:31:20.529Z,101702.50
2022-12-19T13:33:55.847Z,101697.72
2022-12-19T13:40:00.347Z,101696.03
2022-12-19T13:40:08.815Z,101697.13
2022-12-19T13:43:09.761Z,101693.19
2022-12-19T13:45:40.705Z,101694.72
2022-12-19T13:48:16.121Z,101698.25
2022-12-19T13:50:43.873Z,101695.38
2022-12-19T13:53:22.504Z,101691.13
2022-12-19T13:55:49.866Z,101690.69
2022-12-19T13:58:29.935Z,101691.75
2022-12-19T14:01:01.479Z,101687.06
2022-12-19T14:03:38.689Z,101688.59
2022-12-19T14:06:20.595Z,101683.16
2022-12-19T14:09:20.483Z,101689.34
2022-12-19T14:12:28.904Z,101688.16
2022-12-19T14:15:12.464Z,101694.38
2022-12-19T14:17:36.493Z,101694.38
2022-12-19T14:20:57.479Z,101691.63
2022-12-19T14:23:04.954Z,101693.16
2022-12-19T14:28:22.086Z,101690.44
2022-12-19T14:29:03.446Z,101691.31
2022-12-19T14:31:30.636Z,101681.31
2022-12-19T14:34:43.210Z,101682.19
2022-12-19T14:36:50.220Z,101687.75
2022-12-19T14:39:23.728Z,101689.06
2022-12-19T14:42:49.309Z,101684.09
2022-12-19T14:53:51.201Z,101683.47
2022-12-19T14:54:10.122Z,101683.00
2022-12-19T14:54:41.909Z,101686.63
2022-12-19T14:57:03.067Z,101685.53
2022-12-19T14:59:56.349Z,101680.81
2022-12-19T15:02:32.445Z,101683.53
2022-12-19T15:05:07.547Z,101684.00
2022-12-19T15:07:35.101Z,101682.06
2022-12-19T15:11:04.266Z,101680.09
2022-12-19T15:14:48.217Z,101664.22
2022-12-19T15:16:01.236Z,101670.84
2022-12-19T15:18:34.008Z,101675.53
2022-12-19T15:21:05.719Z,101669.31
2022-12-19T15:23:32.789Z,101671.72
2022-12-19T15:26:07.442Z,101680.31
2022-12-19T15:28:41.663Z,101679.59
2022-12-19T15:31:39.596Z,101673.50
2022-12-19T15:34:34.960Z,101669.25
2022-12-19T15:37:02.852Z,101658.78
2022-12-19T15:39:32.475Z,101665.91
2022-12-19T15:42:00.368Z,101655.44
2022-12-19T15:44:43.758Z,101657.84
2022-12-19T15:47:28.619Z,101652.84
2022-12-19T15:49:55.155Z,101655.25
2022-12-19T15:52:22.200Z,101658.81
2022-12-19T15:54:50.156Z,101662.75
2022-12-19T15:57:39.283Z,101652.75
2022-12-19T16:00:18.900Z,101649.72
2022-12-19T16:05:33.113Z,101645.59
2022-12-19T16:07:59.782Z,101648.00
2022-12-19T16:10:27.017Z,101645.28
2022-12-19T16:12:55.735Z,101634.81
2022-12-19T16:15:27.944Z,101635.25
2022-12-19T16:17:56.772Z,101628.31
2022-12-19T16:20:26.925Z,101622.88
2022-12-19T16:22:54.948Z,101627.22
2022-12-19T16:25:23.017Z,101618.28
2022-12-19T16:27:55.700Z,101615.69
2022-12-19T16:30:27.636Z,101616.47
2022-12-19T16:32:54.115Z,101604.81
2022-12-19T16:35:40.400Z,101604.81
2022-12-19T16:38:09.187Z,101605.28
2022-12-19T16:40:35.721Z,101597.13
2022-12-19T16:43:27.564Z,101593.63
2022-12-19T16:45:59.781Z,101596.34
2022-12-19T16:48:29.836Z,101590.16
2022-12-19T16:50:57.989Z,101602.25
2022-12-19T16:53:24.474Z,101610.38
2022-12-19T16:55:51.041Z,101616.25
2022-12-19T16:58:22.967Z,101608.84
2022-12-19T17:00:52.063Z,101602.66
2022-12-19T17:03:27.833Z,101608.09
2022-12-19T17:05:54.931Z,101608.09
2022-12-19T17:08:21.478Z,101610.84
2022-12-19T17:10:48.526Z,101606.91
2022-12-19T17:13:17.617Z,101599.97
2022-12-19T17:15:48.545Z,101598.75
2022-12-19T17:18:25.439Z,101594.50
2022-12-19T17:20:51.882Z,101594.50
2022-12-19T17:23:21.050Z,101596.03
2022-12-19T17:25:47.771Z,101599.50
2022-12-19T17:28:14.755Z,101598.75
2022-12-19T17:30:43.259Z,101590.59
2022-12-19T17:33:15.413Z,101590.59
2022-12-19T17:35:42.494Z,101594.84
2022-12-19T17:38:13.239Z,101579.72
2022-12-19T17:40:40.204Z,101589.41
2022-12-19T17:43:06.735Z,101594.84
2022-12-19T17:45:34.065Z,101583.53
2022-12-19T17:48:04.075Z,101591.69
2022-12-19T17:50:37.297Z,101590.91
2022-12-19T17:53:03.928Z,101589.69
2022-12-19T17:55:31.398Z,101578.81
2022-12-19T17:57:58.896Z,101581.53
2022-12-19T18:00:30.779Z,101590.47
2022-12-19T18:03:01.447Z,101583.06
2022-12-19T18:05:31.874Z,101587.75
2022-12-19T18:07:58.333Z,101591.22
2022-12-19T18:10:27.743Z,101593.94
2022-12-19T18:12:54.781Z,101588.50
2022-12-19T18:15:23.041Z,101595.91
2022-12-19T18:17:51.396Z,101589.69
2022-12-19T18:20:30.928Z,101596.66
2022-12-19T18:22:59.555Z,101599.38
2022-12-19T18:25:29.417Z,101588.50
2022-12-19T18:27:55.914Z,101595.91
2022-12-19T18:30:24.635Z,101595.91
2022-12-19T18:32:56.248Z,101594.41
2022-12-19T18:35:32.002Z,101592.41
2022-12-19T18:38:04.806Z,101595.59
2022-12-19T18:40:32.148Z,101592.13
2022-12-19T18:42:59.099Z,101609.19
2022-12-19T18:45:30.592Z,101614.16
2022-12-19T18:47:59.699Z,101609.97
2022-12-19T18:50:27.208Z,101604.94
2022-12-19T18:52:54.526Z,101599.97
2022-12-19T18:55:22.576Z,101600.69
2022-12-19T18:57:49.859Z,101601.47
2022-12-19T19:00:25.462Z,101608.84
2022-12-19T19:02:56.837Z,101596.03
2022-12-19T19:05:26.507Z,101601.16
2022-12-19T19:07:53.364Z,101591.78
2022-12-19T19:10:29.738Z,101604.63
2022-12-19T19:12:57.645Z,101596.47
2022-12-19T19:15:28.239Z,101597.22
2022-12-19T19:17:59.222Z,101591.03
2022-12-19T19:20:29.000Z,101597.22
2022-12-19T19:22:55.931Z,101601.91
2022-12-19T19:25:22.470Z,101596.47
2022-12-19T19:27:49.920Z,101601.91
2022-12-19T19:30:16.579Z,101598.44
2022-12-19T19:32:53.115Z,101592.53
2022-12-19T19:35:21.953Z,101603.41
2022-12-19T19:37:51.752Z,101614.28
2022-12-19T19:40:19.464Z,101615.84
2022-12-19T19:42:45.934Z,101606.13
2022-12-19T19:45:13.524Z,101599.97
2022-12-19T19:47:42.346Z,101598.75
2022-12-19T19:50:11.998Z,101599.50
2022-12-19T19:52:40.226Z,101607.69
2022-12-19T19:55:09.467Z,101608.84
2022-12-19T19:57:36.532Z,101603.00
2022-12-19T20:00:05.456Z,101603.00
2022-12-19T20:02:32.044Z,101601.47
2022-12-19T20:04:58.762Z,101611.16
2022-12-19T20:07:25.187Z,101601.03
2022-12-19T20:09:51.838Z,101604.94
2022-12-19T20:12:18.501Z,101598.75
2022-12-19T20:14:45.054Z,101585.16
2022-12-19T20:17:11.733Z,101593.63
2022-12-19T20:19:38.647Z,101595.59
2022-12-19T20:22:05.295Z,101592.13
2022-12-19T20:24:32.013Z,101593.63
2022-12-19T20:26:59.166Z,101605.72
2022-12-19T20:29:26.221Z,101615.84
2022-12-19T20:31:52.756Z,101616.59
2022-12-19T20:34:20.128Z,101604.94
2022-12-19T20:36:46.686Z,101607.22
2022-12-19T20:39:13.437Z,101600.69
2022-12-19T20:41:39.949Z,101598.31
2022-12-19T20:44:06.444Z,101591.78
2022-12-19T20:46:33.086Z,101587.88
2022-12-19T20:48:59.618Z,101585.16
2022-12-19T20:51:26.115Z,101568.53
2022-12-19T20:53:56.168Z,101577.31
2022-12-19T20:56:23.330Z,101573.09
2022-12-19T20:58:50.394Z,101577.00
2022-12-19T21:01:20.507Z,101573.09
2022-12-19T21:03:48.847Z,101572.31
2022-12-19T21:06:17.537Z,101593.31
2022-12-19T21:08:44.841Z,101596.34
2022-12-19T21:11:12.973Z,101589.41
2022-12-19T21:13:41.007Z,101586.25
2022-12-19T21:16:11.083Z,101578.81
2022-12-19T21:18:39.452Z,101577.31
2022-12-19T21:21:07.979Z,101575.81
2022-12-19T21:23:35.071Z,101571.13
2022-12-19T21:26:04.306Z,101569.16
2022-12-19T21:28:32.329Z,101569.16
2022-12-19T21:31:01.555Z,101563.72
2022-12-19T21:33:28.644Z,101569.16
2022-12-19T21:35:55.393Z,101573.84
2022-12-19T21:38:22.005Z,101580.06
2022-12-19T21:40:48.558Z,101587.44
2022-12-19T21:43:15.128Z,101583.53
2022-12-19T21:45:41.582Z,101590.16
2022-12-19T21:48:08.084Z,101603.28
2022-12-19T21:50:34.561Z,101597.13
2022-12-19T21:53:01.135Z,101587.44
2022-12-19T21:55:27.615Z,101595.13
2022-12-19T21:57:54.100Z,101606.00
2022-12-19T22:00:20.694Z,101590.16
2022-12-19T22:03:11.988Z,101580.06
2022-12-19T22:05:35.098Z,101578.81
2022-12-19T22:08:01.625Z,101583.53
2022-12-19T22:10:28.111Z,101575.38
2022-12-19T22:12:54.628Z,101573.84
2022-12-19T22:15:21.103Z,101575.03
2022-12-19T22:17:47.599Z,101567.22
2022-12-19T22:20:14.116Z,101567.66
2022-12-19T22:22:40.653Z,101561.78
2022-12-19T22:25:07.443Z,101553.63
2022-12-19T22:27:33.949Z,101561.00
2022-12-19T22:30:06.541Z,101559.91
2022-12-19T22:32:37.004Z,101565.03
2022-12-19T22:35:03.651Z,101559.72
2022-12-19T22:37:30.168Z,101561.78
2022-12-19T22:40:00.002Z,101573.88
2022-12-19T22:42:27.686Z,101568.97
2022-12-19T22:44:54.822Z,101560.19
2022-12-19T22:47:21.593Z,101557.72
2022-12-19T22:49:50.882Z,101558.25
2022-12-19T22:52:17.489Z,101561.84
2022-12-19T22:54:44.093Z,101569.78
2022-12-19T22:57:10.789Z,101562.22
2022-12-19T22:59:37.295Z,101551.88
2022-12-19T23:02:04.020Z,101545.91
2022-12-19T23:04:30.645Z,101558.84
2022-12-19T23:06:57.212Z,101562.84
2022-12-19T23:09:24.064Z,101558.06
2022-12-19T23:11:50.605Z,101556.25
2022-12-19T23:14:18.986Z,101561.41
2022-12-19T23:16:46.348Z,101562.41
2022-12-19T23:19:15.169Z,101562.47
2022-12-19T23:21:41.694Z,101556.09
2022-12-19T23:24:08.273Z,101549.25
2022-12-19T23:26:37.125Z,101558.00
2022-12-19T23:29:06.517Z,101559.31
2022-12-19T23:31:34.158Z,101551.47
2022-12-19T23:34:01.195Z,101547.34
2022-12-19T23:37:08.332Z,101545.47
2022-12-19T23:39:14.965Z,101545.25
2022-12-19T23:41:41.572Z,101539.59
2022-12-19T23:44:09.188Z,101538.59
2022-12-19T23:46:37.469Z,101537.50
2022-12-19T23:49:04.279Z,101539.63
2022-12-19T23:51:30.773Z,101545.91
2022-12-19T23:53:57.385Z,101550.22
2022-12-19T23:56:29.572Z,101551.16
2022-12-19T23:58:56.571Z,101550.84
